Time;durP1;ratioP1;P1;durP2;ratioP2;P2;SDS_P1;SDS_P2;PMS_P1;PMS_P2;Temp;Humidity;BMP_temperature;BMP_pressure;BME280_temperature;BME280_humidity;BME280_pressure;Samples;Min_cycle;Max_cycle;Signal;HPM_P1;HPM_P2
2023/08/24 00:00:38;;;;;;;9.00;4.63;;;19.60;99.90;;;;;;5048480;28;20048;-35
2023/08/24 00:03:04;;;;;;;7.65;4.50;;;20.00;99.90;;;;;;5049413;28;20060;-37
2023/08/24 00:05:33;;;;;;;7.57;4.60;;;20.00;99.90;;;;;;5030140;28;20075;-36
2023/08/24 00:07:58;;;;;;;7.13;4.07;;;19.70;99.90;;;;;;5048645;28;20040;-36
2023/08/24 00:10:25;;;;;;;8.20;4.25;;;20.60;99.90;;;;;;5048624;28;20029;-35
2023/08/24 00:12:51;;;;;;;8.02;4.97;;;19.70;99.90;;;;;;5044533;28;20090;-35
2023/08/24 00:15:16;;;;;;;8.15;4.25;;;19.70;99.90;;;;;;5040717;28;20033;-35
2023/08/24 00:17:42;;;;;;;8.30;3.95;;;19.50;99.90;;;;;;5046361;28;20495;-37
2023/08/24 00:20:10;;;;;;;7.53;4.28;;;19.90;99.90;;;;;;5051078;28;20033;-36
2023/08/24 00:22:38;;;;;;;10.90;5.18;;;20.10;99.90;;;;;;5053006;28;20154;-34
2023/08/24 00:25:05;;;;;;;7.03;4.07;;;19.40;99.90;;;;;;5051080;28;20065;-35
2023/08/24 00:27:30;;;;;;;8.63;4.35;;;20.00;99.90;;;;;;5045841;28;20045;-35
2023/08/24 00:29:56;;;;;;;7.47;4.28;;;20.40;99.90;;;;;;5051196;28;20612;-35
2023/08/24 00:32:23;;;;;;;7.82;3.83;;;20.50;99.90;;;;;;5043573;28;20037;-35
2023/08/24 00:34:48;;;;;;;6.90;3.53;;;19.70;99.90;;;;;;5051665;28;20111;-38
2023/08/24 00:37:14;;;;;;;7.00;3.72;;;19.50;99.90;;;;;;5049386;28;20111;-38
2023/08/24 00:39:40;;;;;;;6.95;3.67;;;19.80;99.90;;;;;;5039921;28;20107;-34
2023/08/24 00:42:06;;;;;;;6.40;4.03;;;19.90;99.90;;;;;;5050541;28;20048;-35
2023/08/24 00:44:31;;;;;;;8.60;4.40;;;19.80;99.90;;;;;;5046487;28;20037;-35
2023/08/24 00:46:59;;;;;;;6.95;4.05;;;19.70;99.90;;;;;;5039397;28;20415;-34
2023/08/24 00:49:25;;;;;;;8.95;4.60;;;19.60;99.90;;;;;;5047599;28;20457;-35
2023/08/24 00:51:51;;;;;;;6.90;3.92;;;19.80;99.90;;;;;;5052156;28;20075;-32
2023/08/24 00:54:17;;;;;;;6.75;3.72;;;19.80;99.90;;;;;;5047287;28;20092;-38
2023/08/24 00:56:43;;;;;;;6.45;3.55;;;19.60;99.90;;;;;;5044724;28;20045;-36
2023/08/24 00:59:09;;;;;;;6.15;2.83;;;19.80;99.90;;;;;;5046041;28;20033;-37
2023/08/24 01:01:35;;;;;;;6.95;3.45;;;19.40;99.90;;;;;;5045395;28;20087;-34
2023/08/24 01:04:02;;;;;;;5.80;3.40;;;19.80;99.90;;;;;;5043041;28;20408;-36
2023/08/24 01:06:28;;;;;;;5.97;3.30;;;20.50;99.90;;;;;;5030397;28;20060;-36
2023/08/24 01:08:54;;;;;;;6.43;3.53;;;19.50;99.90;;;;;;5041848;28;20065;-35
2023/08/24 01:11:35;;;;;;;5.82;3.63;;;19.70;99.90;;;;;;5055139;28;20082;-37
2023/08/24 01:14:23;;;;;;;5.72;3.42;;;19.70;99.90;;;;;;5047706;28;20040;-36
2023/08/24 01:16:51;;;;;;;7.57;4.10;;;19.50;99.90;;;;;;5049513;28;20057;-38
2023/08/24 01:19:42;;;;;;;7.20;4.40;;;19.50;99.90;;;;;;5052099;28;20033;-36
2023/08/24 01:22:30;;;;;;;7.70;4.30;;;19.80;99.90;;;;;;5052518;28;20086;-38
2023/08/24 01:25:21;;;;;;;7.18;4.43;;;19.60;99.90;;;;;;5044353;28;20033;-37
2023/08/24 01:27:49;;;;;;;8.18;5.03;;;19.60;99.90;;;;;;5059009;28;20040;-34
2023/08/24 01:30:14;;;;;;;7.88;4.90;;;20.00;99.90;;;;;;5052403;28;20168;-38
2023/08/24 01:32:40;;;;;;;6.88;4.40;;;19.60;99.90;;;;;;5050340;28;20107;-35
2023/08/24 01:35:08;;;;;;;6.80;4.50;;;19.80;99.90;;;;;;5052038;28;20025;-34
2023/08/24 01:37:35;;;;;;;7.78;4.78;;;19.50;99.90;;;;;;5045618;28;20032;-38
2023/08/24 01:40:15;;;;;;;8.60;5.15;;;19.80;99.90;;;;;;5043533;28;20041;-38
2023/08/24 01:43:02;;;;;;;9.82;5.63;;;19.40;99.90;;;;;;5054548;28;20114;-38
2023/08/24 01:45:30;;;;;;;9.00;6.15;;;19.50;99.90;;;;;;5049747;28;20499;-33
2023/08/24 01:47:59;;;;;;;8.15;5.57;;;19.70;99.90;;;;;;5051704;28;20037;-35
2023/08/24 01:50:25;;;;;;;11.18;6.38;;;20.40;99.90;;;;;;5059188;28;20029;-33
2023/08/24 01:52:51;;;;;;;9.70;6.38;;;19.50;99.90;;;;;;5050999;28;20037;-38
2023/08/24 01:55:20;;;;;;;11.40;6.28;;;20.50;99.90;;;;;;5044524;28;20521;-36
2023/08/24 01:57:46;;;;;;;11.18;6.35;;;19.60;99.90;;;;;;5049139;28;20091;-37
2023/08/24 02:00:12;;;;;;;9.82;5.70;;;19.90;99.90;;;;;;5049017;28;20538;-35
2023/08/24 02:02:38;;;;;;;8.85;5.78;;;19.90;99.90;;;;;;5053178;28;20040;-38
2023/08/24 02:05:04;;;;;;;10.63;6.30;;;19.50;99.90;;;;;;5038289;28;20126;-38
2023/08/24 02:07:29;;;;;;;15.65;7.00;;;19.60;99.90;;;;;;5047434;28;20052;-36
2023/08/24 02:09:55;;;;;;;9.90;6.28;;;19.30;99.90;;;;;;5062132;28;20040;-36
2023/08/24 02:12:21;;;;;;;10.25;5.88;;;19.90;99.90;;;;;;5044933;28;20758;-35
2023/08/24 02:14:46;;;;;;;9.95;5.82;;;20.00;99.90;;;;;;5045619;28;20131;-35
2023/08/24 02:17:12;;;;;;;9.30;5.72;;;19.70;99.90;;;;;;5040483;28;20128;-37
2023/08/24 02:19:38;;;;;;;9.68;5.85;;;19.80;99.90;;;;;;5058974;28;20471;-35
2023/08/24 02:22:03;;;;;;;10.57;5.72;;;19.90;99.90;;;;;;5046588;28;20041;-35
2023/08/24 02:24:29;;;;;;;11.50;6.18;;;19.70;99.90;;;;;;5044218;28;20055;-36
2023/08/24 02:26:54;;;;;;;9.18;6.18;;;19.90;99.90;;;;;;5043013;28;20454;-36
2023/08/24 02:29:20;;;;;;;10.13;6.05;;;20.00;99.90;;;;;;5040721;28;20454;-35
2023/08/24 02:31:48;;;;;;;9.98;6.55;;;19.70;99.90;;;;;;5048205;28;20464;-35
2023/08/24 02:34:14;;;;;;;11.25;5.88;;;19.90;99.90;;;;;;5049117;28;20108;-36
2023/08/24 02:36:40;;;;;;;8.88;5.65;;;19.60;99.90;;;;;;5043717;28;20443;-34
2023/08/24 02:39:05;;;;;;;10.20;6.15;;;19.70;99.90;;;;;;5042879;28;20444;-34
2023/08/24 02:41:31;;;;;;;9.57;5.82;;;20.40;99.90;;;;;;5037294;28;20072;-34
2023/08/24 02:43:56;;;;;;;8.88;6.10;;;20.60;99.90;;;;;;5052016;28;22150;-37
2023/08/24 02:46:22;;;;;;;10.02;5.93;;;19.60;99.90;;;;;;5049514;28;20082;-37
2023/08/24 02:48:48;;;;;;;7.97;5.57;;;19.90;99.90;;;;;;5046851;28;20125;-34
2023/08/24 02:51:14;;;;;;;8.48;6.10;;;19.80;99.90;;;;;;5051097;28;20029;-36
2023/08/24 02:53:39;;;;;;;9.35;5.82;;;19.80;99.90;;;;;;5048911;28;20548;-37
2023/08/24 02:56:05;;;;;;;10.60;6.18;;;19.70;99.90;;;;;;5038886;28;20518;-37
2023/08/24 02:58:31;;;;;;;10.10;6.00;;;20.60;99.90;;;;;;5039172;28;20038;-34
2023/08/24 03:00:57;;;;;;;12.73;5.95;;;19.60;99.90;;;;;;5036022;28;20171;-38
2023/08/24 03:03:24;;;;;;;8.88;6.10;;;19.60;99.90;;;;;;5044367;28;20045;-34
2023/08/24 03:06:00;;;;;;;11.50;6.45;;;19.60;99.90;;;;;;5045550;28;20596;-35
2023/08/24 03:08:26;;;;;;;11.60;6.68;;;19.80;99.90;;;;;;5047710;28;20127;-38
2023/08/24 03:10:52;;;;;;;9.32;5.90;;;20.40;99.90;;;;;;5053679;28;20044;-35
2023/08/24 03:13:18;;;;;;;10.00;6.07;;;20.20;99.90;;;;;;5049566;28;20044;-37
2023/08/24 03:15:43;;;;;;;11.15;6.45;;;19.60;99.90;;;;;;5057570;28;20051;-35
2023/08/24 03:18:13;;;;;;;11.40;6.93;;;19.40;99.90;;;;;;5042489;28;20041;-35
2023/08/24 03:20:40;;;;;;;10.55;6.20;;;19.70;99.90;;;;;;5052722;28;20074;-35
2023/08/24 03:23:06;;;;;;;10.50;6.32;;;19.10;99.90;;;;;;5049845;28;20111;-36
2023/08/24 03:25:36;;;;;;;12.07;6.20;;;19.70;99.90;;;;;;5048513;28;20037;-38
2023/08/24 03:28:02;;;;;;;9.15;6.15;;;19.70;99.90;;;;;;5044770;28;20045;-35
2023/08/24 03:30:28;;;;;;;9.63;6.90;;;19.80;99.90;;;;;;5062563;28;20130;-37
2023/08/24 03:32:54;;;;;;;12.13;6.82;;;19.40;99.90;;;;;;5047463;28;20415;-36
2023/08/24 03:35:20;;;;;;;12.45;6.90;;;20.50;99.90;;;;;;5041487;28;20068;-38
2023/08/24 03:37:45;;;;;;;10.57;6.70;;;19.20;99.90;;;;;;5043743;28;20087;-35
2023/08/24 03:40:12;;;;;;;12.90;7.32;;;19.80;99.90;;;;;;5036774;28;20563;-37
2023/08/24 03:42:38;;;;;;;9.43;7.13;;;19.40;99.90;;;;;;5042695;28;20087;-34
2023/08/24 03:45:04;;;;;;;9.60;5.95;;;19.50;99.90;;;;;;5054551;28;20040;-34
2023/08/24 03:47:30;;;;;;;15.38;6.72;;;18.70;99.90;;;;;;5042278;28;20084;-38
2023/08/24 03:49:56;;;;;;;11.15;6.88;;;20.20;99.90;;;;;;5047075;28;20072;-38
2023/08/24 03:52:21;;;;;;;14.10;6.95;;;19.60;99.90;;;;;;5040669;28;20067;-37
2023/08/24 03:54:47;;;;;;;10.48;6.57;;;19.50;99.90;;;;;;5039358;28;20037;-37
2023/08/24 03:57:13;;;;;;;11.20;7.10;;;19.80;99.90;;;;;;5039268;28;20033;-35
2023/08/24 03:59:39;;;;;;;11.00;6.95;;;19.50;99.90;;;;;;5044475;28;20080;-38
2023/08/24 04:02:05;;;;;;;9.38;6.30;;;19.50;99.90;;;;;;5044899;28;20083;-36
2023/08/24 04:04:31;;;;;;;12.38;7.68;;;19.30;99.90;;;;;;5030960;28;20132;-35
2023/08/24 04:06:56;;;;;;;10.02;7.38;;;19.30;99.90;;;;;;5051768;28;20623;-37
2023/08/24 04:09:22;;;;;;;9.52;6.97;;;19.80;99.90;;;;;;5041705;28;20091;-37
2023/08/24 04:11:48;;;;;;;11.18;6.57;;;19.30;99.90;;;;;;5055705;28;20116;-33
2023/08/24 04:14:13;;;;;;;9.95;6.45;;;19.60;99.90;;;;;;5044598;28;20039;-35
2023/08/24 04:16:39;;;;;;;9.60;6.30;;;19.20;99.90;;;;;;5047555;28;20038;-34
2023/08/24 04:19:05;;;;;;;11.30;6.63;;;19.50;99.90;;;;;;5046928;28;20091;-35
2023/08/24 04:21:31;;;;;;;10.82;6.70;;;19.50;99.90;;;;;;5036400;28;20100;-33
2023/08/24 04:23:56;;;;;;;11.25;7.85;;;19.60;99.90;;;;;;5038007;28;20061;-38
2023/08/24 04:26:22;;;;;;;9.93;6.55;;;19.60;99.90;;;;;;5044194;28;20040;-35
2023/08/24 04:28:48;;;;;;;13.45;7.57;;;19.70;99.90;;;;;;5041369;28;20042;-36
2023/08/24 04:31:14;;;;;;;11.38;7.32;;;19.40;99.90;;;;;;5038865;28;20044;-35
2023/08/24 04:33:39;;;;;;;14.32;7.38;;;19.40;99.90;;;;;;5041116;28;20036;-35
2023/08/24 04:36:05;;;;;;;12.23;7.57;;;19.70;99.90;;;;;;5038968;28;20037;-35
2023/08/24 04:38:31;;;;;;;10.18;7.07;;;19.50;99.90;;;;;;5032581;28;20055;-36
2023/08/24 04:40:57;;;;;;;13.52;7.28;;;19.40;99.90;;;;;;5039188;28;20049;-38
2023/08/24 04:43:23;;;;;;;12.00;7.57;;;19.70;99.90;;;;;;5043644;28;20032;-36
2023/08/24 04:45:53;;;;;;;11.38;8.10;;;19.50;99.90;;;;;;5048163;28;20033;-38
2023/08/24 04:48:23;;;;;;;15.68;8.00;;;19.50;99.90;;;;;;5039168;28;20176;-37
2023/08/24 04:50:50;;;;;;;17.25;8.52;;;19.40;99.90;;;;;;5043933;28;20037;-37
2023/08/24 04:53:18;;;;;;;15.43;7.30;;;21.60;99.90;;;;;;5038282;28;20028;-38
2023/08/24 04:55:44;;;;;;;14.35;7.30;;;19.10;99.90;;;;;;5046200;28;20101;-38
2023/08/24 04:58:11;;;;;;;14.00;7.40;;;19.40;99.90;;;;;;5043103;28;20048;-36
2023/08/24 05:00:39;;;;;;;11.25;6.35;;;19.40;99.90;;;;;;5035643;28;20047;-35
2023/08/24 05:03:06;;;;;;;11.00;6.57;;;20.70;99.90;;;;;;5044292;28;20043;-36
2023/08/24 05:05:33;;;;;;;10.98;6.80;;;19.60;1.00;;;;;;5049314;28;20048;-35
2023/08/24 05:08:00;;;;;;;10.45;7.32;;;19.30;1.00;;;;;;5044939;28;20526;-34
2023/08/24 05:10:30;;;;;;;10.20;6.93;;;19.80;1.00;;;;;;5045275;28;20044;-38
2023/08/24 05:12:56;;;;;;;10.93;6.38;;;19.50;1.00;;;;;;5042134;28;20800;-38
2023/08/24 05:15:22;;;;;;;10.95;5.18;;;19.30;1.00;;;;;;5044059;28;20033;-35
2023/08/24 05:17:48;;;;;;;10.18;5.72;;;19.30;1.00;;;;;;5042751;28;20051;-36
2023/08/24 05:20:13;;;;;;;10.02;6.65;;;19.60;1.00;;;;;;5047493;28;20028;-36
2023/08/24 05:22:40;;;;;;;9.90;6.13;;;19.60;1.00;;;;;;5041579;28;20095;-37
2023/08/24 05:25:06;;;;;;;11.93;6.95;;;19.90;99.90;;;;;;5043728;28;20039;-34
2023/08/24 05:27:32;;;;;;;12.75;6.85;;;19.60;99.90;;;;;;5046378;28;20110;-32
2023/08/24 05:29:57;;;;;;;10.90;7.25;;;19.40;99.90;;;;;;5046443;28;20041;-34
2023/08/24 05:32:24;;;;;;;10.73;7.57;;;19.30;99.90;;;;;;5044605;28;20105;-35
2023/08/24 05:34:50;;;;;;;12.88;6.60;;;19.30;99.90;;;;;;5046981;28;20033;-36
2023/08/24 05:37:16;;;;;;;16.27;8.73;;;19.10;99.90;;;;;;5043910;28;20544;-36
2023/08/24 05:39:42;;;;;;;14.10;8.90;;;19.40;1.00;;;;;;5060034;28;20086;-34
2023/08/24 05:42:09;;;;;;;12.82;6.82;;;19.20;1.00;;;;;;5054358;28;20041;-34
2023/08/24 05:44:35;;;;;;;11.52;7.05;;;19.40;1.00;;;;;;5056399;28;20068;-37
2023/08/24 05:47:00;;;;;;;10.48;6.20;;;19.10;1.00;;;;;;5040366;28;20099;-38
2023/08/24 05:49:26;;;;;;;11.20;7.03;;;19.30;1.00;;;;;;5056004;28;20036;-38
2023/08/24 05:51:52;;;;;;;12.07;6.85;;;19.30;1.00;;;;;;5038801;28;20061;-36
2023/08/24 05:54:18;;;;;;;11.13;6.07;;;19.30;1.00;;;;;;5055778;28;20075;-37
2023/08/24 05:56:45;;;;;;;10.88;6.40;;;18.80;1.00;;;;;;5042738;28;20030;-36
2023/08/24 05:59:11;;;;;;;10.80;6.15;;;19.40;1.00;;;;;;5032775;28;20049;-35
2023/08/24 06:01:39;;;;;;;9.88;6.20;;;19.50;1.00;;;;;;5044247;28;20123;-35
2023/08/24 06:04:09;;;;;;;12.82;6.03;;;19.20;1.00;;;;;;5037837;28;20045;-36
2023/08/24 06:06:35;;;;;;;8.82;5.85;;;19.30;1.00;;;;;;5054527;28;20032;-35
2023/08/24 06:09:04;;;;;;;11.75;5.40;;;18.80;1.00;;;;;;5037663;28;20041;-35
2023/08/24 06:11:29;;;;;;;9.63;5.32;;;19.50;1.00;;;;;;5047648;28;20051;-38
2023/08/24 06:13:55;;;;;;;10.90;5.30;;;19.40;1.00;;;;;;5042502;28;20022;-35
2023/08/24 06:16:21;;;;;;;10.07;6.30;;;19.10;1.00;;;;;;5042814;28;20047;-37
2023/08/24 06:18:46;;;;;;;12.25;5.65;;;18.90;1.00;;;;;;5046066;28;20042;-36
2023/08/24 06:21:12;;;;;;;13.00;6.10;;;19.20;7.00;;;;;;5035132;28;20127;-37
2023/08/24 06:23:38;;;;;;;8.80;5.63;;;19.50;15.30;;;;;;5050935;28;20083;-34
2023/08/24 06:26:04;;;;;;;9.27;5.57;;;19.50;27.60;;;;;;5049290;28;20045;-38
2023/08/24 06:28:30;;;;;;;10.88;5.88;;;19.30;36.60;;;;;;5048329;28;20037;-34
2023/08/24 06:30:56;;;;;;;11.95;5.57;;;19.40;49.30;;;;;;5048480;28;20083;-35
2023/08/24 06:33:29;;;;;;;10.23;5.68;;;19.60;67.40;;;;;;5037754;28;20040;-36
2023/08/24 06:35:56;;;;;;;7.97;5.33;;;19.90;86.60;;;;;;5041944;28;20460;-36
2023/08/24 06:38:22;;;;;;;9.10;5.78;;;19.60;91.80;;;;;;5046992;28;20271;-36
2023/08/24 06:40:48;;;;;;;9.70;5.85;;;19.40;96.10;;;;;;5047940;28;20070;-37
2023/08/24 06:43:13;;;;;;;8.77;5.20;;;17.80;99.50;;;;;;5047987;28;20099;-36
2023/08/24 06:45:40;;;;;;;9.27;5.03;;;19.20;99.90;;;;;;5043110;28;20095;-37
2023/08/24 06:48:07;;;;;;;9.93;4.60;;;19.80;99.90;;;;;;5056990;28;20314;-38
2023/08/24 06:50:33;;;;;;;8.00;4.57;;;19.30;99.90;;;;;;5041317;28;20033;-37
2023/08/24 06:52:59;;;;;;;7.82;4.28;;;19.80;99.90;;;;;;5044570;28;20105;-37
2023/08/24 06:55:27;;;;;;;9.05;4.55;;;20.10;99.90;;;;;;5047212;28;20111;-38
2023/08/24 06:57:52;;;;;;;7.47;4.30;;;20.30;99.90;;;;;;5042357;28;20119;-34
2023/08/24 07:00:19;;;;;;;9.18;4.45;;;20.50;99.90;;;;;;5045040;28;20137;-36
2023/08/24 07:02:49;;;;;;;7.20;4.18;;;19.30;99.90;;;;;;5038465;28;20513;-35
2023/08/24 07:05:18;;;;;;;8.05;4.70;;;19.40;99.90;;;;;;5048974;28;20037;-37
2023/08/24 07:07:49;;;;;;;7.55;4.10;;;19.80;99.90;;;;;;5034542;28;20044;-35
2023/08/24 07:10:14;;;;;;;10.07;3.97;;;19.70;1.00;;;;;;5047280;28;20079;-37
2023/08/24 07:12:40;;;;;;;8.18;4.07;;;20.40;1.00;;;;;;5037022;28;20104;-36
2023/08/24 07:15:10;;;;;;;8.85;4.63;;;20.60;2.30;;;;;;5040647;28;20037;-36
2023/08/24 07:17:36;;;;;;;8.10;3.92;;;19.60;24.40;;;;;;5042284;28;20047;-36
2023/08/24 07:20:05;;;;;;;11.02;3.80;;;20.10;27.20;;;;;;5037560;28;20143;-36
2023/08/24 07:22:31;;;;;;;8.38;4.03;;;19.90;29.50;;;;;;5043333;28;20059;-34
2023/08/24 07:24:57;;;;;;;6.75;3.30;;;19.60;23.40;;;;;;5051766;28;20037;-38
2023/08/24 07:27:22;;;;;;;5.50;2.40;;;19.90;17.00;;;;;;5052211;28;20095;-38
2023/08/24 07:29:48;;;;;;;7.88;3.67;;;20.60;10.10;;;;;;5040595;28;20036;-38
2023/08/24 07:32:14;;;;;;;7.32;3.53;;;20.10;3.80;;;;;;5047278;28;20037;-37
2023/08/24 07:34:40;;;;;;;7.00;3.53;;;20.80;1.00;;;;;;5038605;28;20041;-35
2023/08/24 07:37:05;;;;;;;6.57;2.75;;;19.90;1.00;;;;;;5043024;28;20043;-36
2023/08/24 07:39:33;;;;;;;7.70;2.78;;;19.80;1.00;;;;;;5040015;28;20048;-38
2023/08/24 07:41:59;;;;;;;6.97;2.80;;;20.80;1.00;;;;;;5038810;28;20037;-38
2023/08/24 07:44:24;;;;;;;4.97;2.17;;;20.70;1.00;;;;;;5043850;28;20071;-37
2023/08/24 07:46:50;;;;;;;5.15;2.20;;;20.10;1.00;;;;;;5045368;28;20082;-37
2023/08/24 07:49:16;;;;;;;5.35;2.05;;;21.00;1.00;;;;;;5039209;28;20091;-35
2023/08/24 07:51:47;;;;;;;5.90;2.08;;;20.00;1.00;;;;;;5042819;28;20346;-36
2023/08/24 07:54:13;;;;;;;5.78;2.40;;;19.80;1.00;;;;;;5049796;28;20029;-37
2023/08/24 07:56:38;;;;;;;6.28;1.90;;;21.00;1.00;;;;;;5039595;28;20040;-34
2023/08/24 07:59:04;;;;;;;5.20;1.70;;;19.70;1.00;;;;;;5040515;28;20041;-38
2023/08/24 08:01:30;;;;;;;4.50;1.75;;;20.10;1.00;;;;;;5038108;28;20037;-36
2023/08/24 08:03:56;;;;;;;4.18;1.55;;;19.90;1.00;;;;;;5071965;28;20076;-36
2023/08/24 08:06:24;;;;;;;5.57;1.55;;;19.90;1.00;;;;;;5047527;28;20068;-36
2023/08/24 08:08:51;;;;;;;6.50;2.10;;;20.70;1.00;;;;;;5043676;28;20040;-35
2023/08/24 08:11:17;;;;;;;5.60;1.77;;;20.00;1.00;;;;;;5030383;28;20033;-37
2023/08/24 08:13:43;;;;;;;5.82;2.22;;;20.20;1.00;;;;;;5043795;28;20041;-38
2023/08/24 08:16:08;;;;;;;4.82;1.83;;;19.90;1.00;;;;;;5052145;28;20121;-34
2023/08/24 08:18:35;;;;;;;5.35;1.73;;;21.20;1.00;;;;;;5037053;28;20037;-37
2023/08/24 08:21:08;;;;;;;5.30;1.90;;;21.20;1.00;;;;;;5060149;28;20045;-38
2023/08/24 08:23:33;;;;;;;5.75;1.60;;;20.20;1.00;;;;;;5049723;28;20041;-36
2023/08/24 08:25:59;;;;;;;5.15;1.60;;;21.30;1.00;;;;;;5054656;28;20052;-34
2023/08/24 08:28:25;;;;;;;5.32;1.75;;;21.20;1.00;;;;;;5041755;28;20041;-36
2023/08/24 08:30:50;;;;;;;4.63;1.80;;;20.20;1.00;;;;;;5053955;28;20241;-35
2023/08/24 08:33:16;;;;;;;5.57;1.65;;;21.10;1.00;;;;;;5043770;28;20075;-37
2023/08/24 08:35:43;;;;;;;5.00;1.95;;;21.30;1.00;;;;;;5042134;28;20049;-38
2023/08/24 08:38:08;;;;;;;5.65;1.90;;;20.00;1.00;;;;;;5044589;28;20490;-36
2023/08/24 08:40:37;;;;;;;5.55;1.70;;;20.90;1.00;;;;;;5050338;28;20048;-35
2023/08/24 08:43:03;;;;;;;4.45;1.60;;;20.80;1.00;;;;;;5058760;28;20036;-34
2023/08/24 08:45:29;;;;;;;6.25;2.28;;;21.20;1.00;;;;;;5047136;28;20045;-35
2023/08/24 08:48:01;;;;;;;4.10;1.60;;;21.00;1.00;;;;;;5056157;28;20040;-38
2023/08/24 08:50:27;;;;;;;5.72;1.95;;;20.60;1.00;;;;;;5055220;28;20494;-38
2023/08/24 08:52:52;;;;;;;6.05;1.80;;;21.20;1.00;;;;;;5058067;28;20032;-39
2023/08/24 08:55:18;;;;;;;6.22;2.03;;;21.30;1.00;;;;;;5051684;28;20037;-34
2023/08/24 08:57:47;;;;;;;5.28;2.10;;;20.60;1.00;;;;;;5045708;28;20040;-38
2023/08/24 09:00:16;;;;;;;4.80;2.10;;;21.50;1.00;;;;;;5045225;28;20048;-37
2023/08/24 09:02:45;;;;;;;5.88;2.05;;;20.50;1.00;;;;;;5047651;28;20290;-35
2023/08/24 09:05:12;;;;;;;4.97;1.83;;;20.60;1.00;;;;;;5072479;28;20327;-37
2023/08/24 09:07:40;;;;;;;6.95;1.88;;;21.30;1.00;;;;;;5051817;28;20094;-35
2023/08/24 09:10:07;;;;;;;5.30;2.10;;;21.30;1.00;;;;;;5047749;28;20621;-37
2023/08/24 09:12:33;;;;;;;6.75;2.35;;;20.70;1.00;;;;;;5046416;28;20044;-38
2023/08/24 09:14:59;;;;;;;7.05;2.58;;;21.60;1.00;;;;;;5044276;28;20163;-37
2023/08/24 09:17:25;;;;;;;8.10;2.53;;;20.60;1.00;;;;;;5046274;28;20060;-36
2023/08/24 09:19:53;;;;;;;6.78;1.98;;;21.10;1.00;;;;;;5045981;28;20086;-36
2023/08/24 09:22:18;;;;;;;6.30;2.05;;;21.30;1.00;;;;;;5031012;28;20055;-37
2023/08/24 09:24:45;;;;;;;6.00;2.50;;;21.70;1.00;;;;;;5055901;28;20037;-36
2023/08/24 09:27:21;;;;;;;6.18;2.20;;;21.70;1.00;;;;;;5048897;28;20049;-38
2023/08/24 09:29:56;;;;;;;4.80;1.98;;;20.70;1.00;;;;;;5047228;28;20029;-35
2023/08/24 09:32:29;;;;;;;6.80;2.13;;;21.30;1.00;;;;;;5042549;28;20037;-36
2023/08/24 09:34:55;;;;;;;5.28;2.08;;;21.30;1.00;;;;;;5057193;28;20075;-37
2023/08/24 09:37:21;;;;;;;5.38;2.20;;;21.70;1.00;;;;;;5044258;28;20045;-37
2023/08/24 09:39:47;;;;;;;6.03;2.05;;;20.60;1.00;;;;;;5056673;28;20098;-38
2023/08/24 09:42:13;;;;;;;4.75;2.10;;;21.80;1.00;;;;;;5040751;28;20106;-38
2023/08/24 09:44:45;;;;;;;5.00;2.25;;;21.50;1.00;;;;;;5054993;28;20037;-37
2023/08/24 09:47:11;;;;;;;5.40;2.20;;;20.70;1.00;;;;;;5050108;28;20042;-36
2023/08/24 09:49:37;;;;;;;6.15;2.10;;;20.80;1.00;;;;;;5044472;28;20042;-35
2023/08/24 09:52:07;;;;;;;4.82;2.10;;;21.40;1.00;;;;;;5054777;28;20039;-35
2023/08/24 09:54:38;;;;;;;5.70;2.10;;;21.80;1.00;;;;;;5040180;28;20447;-36
2023/08/24 09:57:07;;;;;;;4.50;2.15;;;21.40;1.00;;;;;;5048489;28;20033;-37
2023/08/24 09:59:35;;;;;;;5.35;2.05;;;22.00;1.00;;;;;;5038191;28;20076;-37
2023/08/24 10:02:01;;;;;;;4.60;1.80;;;21.60;1.00;;;;;;5054312;28;20115;-36
2023/08/24 10:04:33;;;;;;;5.30;2.40;;;20.80;1.00;;;;;;5038676;28;20112;-37
2023/08/24 10:07:07;;;;;;;6.80;2.20;;;21.60;1.00;;;;;;5044601;28;20078;-37
2023/08/24 10:09:50;;;;;;;5.25;2.00;;;21.20;1.00;;;;;;5044420;28;20661;-38
2023/08/24 10:12:20;;;;;;;6.75;2.20;;;21.60;1.00;;;;;;5043335;28;20039;-35
2023/08/24 10:15:06;;;;;;;6.60;2.30;;;21.80;1.00;;;;;;5040066;28;20041;-37
2023/08/24 10:17:35;;;;;;;6.50;2.22;;;21.60;1.00;;;;;;5052005;28;20037;-37
2023/08/24 10:20:05;;;;;;;7.82;2.20;;;21.40;1.00;;;;;;5058707;28;20083;-33
2023/08/24 10:22:31;;;;;;;8.65;2.83;;;20.80;1.00;;;;;;5039474;28;20052;-35
2023/08/24 10:24:57;;;;;;;6.43;3.03;;;21.70;1.00;;;;;;5049813;28;20040;-36
2023/08/24 10:27:26;;;;;;;6.25;2.90;;;21.80;1.00;;;;;;5049240;28;20048;-36
2023/08/24 10:29:52;;;;;;;6.57;2.83;;;21.80;1.00;;;;;;5054963;28;20545;-38
2023/08/24 10:32:19;;;;;;;7.57;2.80;;;21.90;1.00;;;;;;5036489;28;20125;-38
2023/08/24 10:34:45;;;;;;;7.60;2.80;;;21.50;1.00;;;;;;5058666;28;20079;-36
2023/08/24 10:37:11;;;;;;;6.00;2.90;;;21.40;1.00;;;;;;5051219;28;20548;-35
2023/08/24 10:39:47;;;;;;;6.35;2.95;;;21.10;1.00;;;;;;5054838;28;20048;-35
2023/08/24 10:42:14;;;;;;;6.78;2.85;;;21.90;1.00;;;;;;5042836;28;20468;-35
2023/08/24 10:44:44;;;;;;;7.70;2.88;;;21.60;1.00;;;;;;5041919;28;20029;-35
2023/08/24 10:47:16;;;;;;;9.15;3.35;;;21.50;1.00;;;;;;5040872;28;20037;-38
2023/08/24 10:49:43;;;;;;;8.27;3.67;;;22.00;1.00;;;;;;5041538;28;20091;-34
2023/08/24 10:52:19;;;;;;;6.88;3.50;;;21.50;1.00;;;;;;5056221;28;20028;-35
2023/08/24 10:54:48;;;;;;;7.55;3.40;;;21.20;1.00;;;;;;5043261;28;20036;-34
2023/08/24 10:57:21;;;;;;;6.47;3.13;;;21.70;1.00;;;;;;5051432;28;20038;-38
2023/08/24 11:00:09;;;;;;;8.65;3.53;;;22.10;1.00;;;;;;5045194;28;20078;-35
2023/08/24 11:02:46;;;;;;;8.45;3.47;;;20.90;1.00;;;;;;5047595;28;20120;-38
2023/08/24 11:05:19;;;;;;;9.27;4.15;;;21.90;1.00;;;;;;5035696;28;20526;-35
2023/08/24 11:07:53;;;;;;;6.47;3.85;;;21.90;1.00;;;;;;5052217;28;20041;-35
2023/08/24 11:10:20;;;;;;;9.80;3.88;;;21.90;1.00;;;;;;5050936;28;20040;-34
2023/08/24 11:13:04;;;;;;;9.07;4.18;;;21.10;1.00;;;;;;5041400;28;21279;-38
2023/08/24 11:15:34;;;;;;;8.55;3.65;;;21.20;1.00;;;;;;5057768;28;20078;-35
2023/08/24 11:18:18;;;;;;;10.30;4.13;;;21.80;1.00;;;;;;5045028;28;20521;-36
2023/08/24 11:20:44;;;;;;;9.70;4.13;;;21.50;1.00;;;;;;5052404;28;20037;-34
2023/08/24 11:23:11;;;;;;;8.15;4.65;;;22.20;1.00;;;;;;5031954;28;20074;-37
2023/08/24 11:25:36;;;;;;;8.68;4.25;;;22.10;1.00;;;;;;5034153;28;20534;-38
2023/08/24 11:28:03;;;;;;;8.95;4.05;;;21.90;1.00;;;;;;5044827;28;20119;-36
2023/08/24 11:30:31;;;;;;;8.02;3.67;;;22.10;1.00;;;;;;5050170;28;20073;-35
2023/08/24 11:32:56;;;;;;;12.07;4.93;;;22.00;1.00;;;;;;5041897;28;20033;-37
2023/08/24 11:35:23;;;;;;;8.55;3.83;;;21.70;1.00;;;;;;5037054;28;20395;-35
2023/08/24 11:37:55;;;;;;;8.60;3.95;;;22.10;1.00;;;;;;5037957;28;21384;-38
2023/08/24 11:40:28;;;;;;;;;;;21.10;1.00;;;;;;5039556;28;20041;-38
2023/08/24 11:42:58;;;;;;;7.10;4.07;;;22.00;1.00;;;;;;5039673;28;19917;-34
2023/08/24 11:45:29;;;;;;;7.22;3.35;;;22.00;1.00;;;;;;5045814;28;20300;-37
2023/08/24 11:47:54;;;;;;;10.60;3.95;;;21.80;1.00;;;;;;5041010;28;20132;-36
2023/08/24 11:50:20;;;;;;;7.80;4.40;;;21.80;1.00;;;;;;5048281;28;20112;-35
2023/08/24 11:52:46;;;;;;;8.60;4.22;;;22.30;1.00;;;;;;5047217;28;20084;-36
2023/08/24 11:55:12;;;;;;;8.70;3.50;;;21.80;1.00;;;;;;5042834;28;20041;-35
2023/08/24 11:57:38;;;;;;;8.45;4.25;;;21.90;1.00;;;;;;5046113;28;20120;-36
2023/08/24 12:00:05;;;;;;;8.82;3.60;;;22.40;1.00;;;;;;5040517;28;20047;-35
2023/08/24 12:02:32;;;;;;;8.45;3.97;;;21.30;1.00;;;;;;5041172;28;20120;-35
2023/08/24 12:04:58;;;;;;;8.77;3.85;;;21.30;1.00;;;;;;5037805;28;20037;-35
2023/08/24 12:07:25;;;;;;;8.38;4.10;;;22.10;1.00;;;;;;5049700;28;20045;-37
2023/08/24 12:09:54;;;;;;;7.22;3.20;;;22.10;1.00;;;;;;5025208;28;20041;-34
2023/08/24 12:12:23;;;;;;;8.82;4.10;;;22.50;1.00;;;;;;5038607;28;20095;-37
2023/08/24 12:15:06;;;;;;;8.23;4.05;;;22.00;1.00;;;;;;5038862;28;20075;-34
2023/08/24 12:17:43;;;;;;;9.80;3.92;;;22.00;1.00;;;;;;5044220;28;20044;-34
2023/08/24 12:20:21;;;;;;;7.97;3.78;;;22.20;1.00;;;;;;5032304;28;20067;-37
2023/08/24 12:22:54;;;;;;;7.68;3.75;;;21.40;1.00;;;;;;5034258;28;20056;-35
2023/08/24 12:25:24;;;;;;;8.40;4.43;;;22.00;1.00;;;;;;5044432;28;20472;-35
2023/08/24 12:27:51;;;;;;;8.27;4.00;;;21.80;1.00;;;;;;5056152;28;20036;-38
2023/08/24 12:30:19;;;;;;;7.85;3.78;;;22.30;1.00;;;;;;5046750;28;20037;-35
2023/08/24 12:32:46;;;;;;;7.05;3.70;;;21.60;1.00;;;;;;5054815;28;20048;-35
2023/08/24 12:35:14;;;;;;;7.30;4.25;;;22.20;1.00;;;;;;5047499;28;20072;-38
2023/08/24 12:37:40;;;;;;;7.53;3.80;;;21.90;1.00;;;;;;5039200;28;20047;-34
2023/08/24 12:40:07;;;;;;;6.97;4.18;;;22.00;1.00;;;;;;5043785;28;20041;-37
2023/08/24 12:42:33;;;;;;;10.35;6.00;;;22.20;1.00;;;;;;5029489;28;20452;-36
2023/08/24 12:44:59;;;;;;;8.93;5.40;;;22.30;1.00;;;;;;5049807;28;20186;-36
2023/08/24 12:47:25;;;;;;;9.80;5.20;;;22.50;1.00;;;;;;5050055;28;20052;-35
2023/08/24 12:49:52;;;;;;;10.38;4.60;;;22.00;1.00;;;;;;5048105;28;20037;-35